sensor_id;sensor_type;location;lat;lon;timestamp;P1;durP1;ratioP1;P2;durP2;ratioP2
33836;SDS011;20140;49.356;8.812;2024-01-30T00:01:02;12.40;;;8.17;;
33836;SDS011;20140;49.356;8.812;2024-01-30T00:03:27;16.97;;;10.90;;
33836;SDS011;20140;49.356;8.812;2024-01-30T00:05:54;15.32;;;9.50;;
33836;SDS011;20140;49.356;8.812;2024-01-30T00:08:20;14.57;;;9.10;;
33836;SDS011;20140;49.356;8.812;2024-01-30T00:10:45;7.57;;;4.97;;
33836;SDS011;20140;49.356;8.812;2024-01-30T00:13:11;7.38;;;5.60;;
33836;SDS011;20140;49.356;8.812;2024-01-30T00:15:38;3.67;;;3.28;;
33836;SDS011;20140;49.356;8.812;2024-01-30T00:18:04;5.45;;;3.85;;
33836;SDS011;20140;49.356;8.812;2024-01-30T00:20:29;7.82;;;4.15;;
33836;SDS011;20140;49.356;8.812;2024-01-30T00:22:55;4.88;;;4.18;;
33836;SDS011;20140;49.356;8.812;2024-01-30T00:25:21;5.47;;;4.30;;
33836;SDS011;20140;49.356;8.812;2024-01-30T00:27:46;6.07;;;4.70;;
33836;SDS011;20140;49.356;8.812;2024-01-30T00:30:12;5.83;;;3.80;;
33836;SDS011;20140;49.356;8.812;2024-01-30T00:32:37;4.40;;;3.38;;
33836;SDS011;20140;49.356;8.812;2024-01-30T00:35:03;4.22;;;3.50;;
33836;SDS011;20140;49.356;8.812;2024-01-30T00:37:29;4.68;;;3.38;;
33836;SDS011;20140;49.356;8.812;2024-01-30T00:39:56;3.53;;;3.15;;
33836;SDS011;20140;49.356;8.812;2024-01-30T00:42:21;6.20;;;3.37;;
33836;SDS011;20140;49.356;8.812;2024-01-30T00:44:48;3.20;;;2.75;;
33836;SDS011;20140;49.356;8.812;2024-01-30T00:47:14;4.38;;;3.20;;
33836;SDS011;20140;49.356;8.812;2024-01-30T00:49:39;3.50;;;2.65;;
33836;SDS011;20140;49.356;8.812;2024-01-30T00:52:05;3.63;;;3.15;;
33836;SDS011;20140;49.356;8.812;2024-01-30T00:54:30;3.97;;;3.17;;
33836;SDS011;20140;49.356;8.812;2024-01-30T00:56:56;3.80;;;3.10;;
33836;SDS011;20140;49.356;8.812;2024-01-30T00:59:21;3.17;;;2.50;;
33836;SDS011;20140;49.356;8.812;2024-01-30T01:01:47;4.23;;;3.20;;
33836;SDS011;20140;49.356;8.812;2024-01-30T01:04:13;4.93;;;3.20;;
33836;SDS011;20140;49.356;8.812;2024-01-30T01:06:38;3.08;;;2.78;;
33836;SDS011;20140;49.356;8.812;2024-01-30T01:09:06;3.20;;;2.83;;
33836;SDS011;20140;49.356;8.812;2024-01-30T01:11:32;3.78;;;3.20;;
33836;SDS011;20140;49.356;8.812;2024-01-30T01:14:00;6.65;;;3.00;;
33836;SDS011;20140;49.356;8.812;2024-01-30T01:16:26;4.53;;;3.20;;
33836;SDS011;20140;49.356;8.812;2024-01-30T01:18:51;3.38;;;2.70;;
33836;SDS011;20140;49.356;8.812;2024-01-30T01:21:17;3.83;;;2.88;;
33836;SDS011;20140;49.356;8.812;2024-01-30T01:23:43;3.53;;;2.77;;
33836;SDS011;20140;49.356;8.812;2024-01-30T01:26:08;3.13;;;2.83;;
33836;SDS011;20140;49.356;8.812;2024-01-30T01:28:34;8.77;;;3.42;;
33836;SDS011;20140;49.356;8.812;2024-01-30T01:31:00;3.63;;;2.78;;
33836;SDS011;20140;49.356;8.812;2024-01-30T01:33:30;3.75;;;2.70;;
33836;SDS011;20140;49.356;8.812;2024-01-30T01:35:57;4.80;;;2.83;;
33836;SDS011;20140;49.356;8.812;2024-01-30T01:38:23;4.82;;;2.90;;
33836;SDS011;20140;49.356;8.812;2024-01-30T01:40:49;4.60;;;3.00;;
33836;SDS011;20140;49.356;8.812;2024-01-30T01:43:14;3.37;;;2.70;;
33836;SDS011;20140;49.356;8.812;2024-01-30T01:45:40;3.00;;;2.63;;
33836;SDS011;20140;49.356;8.812;2024-01-30T01:48:05;4.20;;;2.97;;
33836;SDS011;20140;49.356;8.812;2024-01-30T01:50:33;3.35;;;2.40;;
33836;SDS011;20140;49.356;8.812;2024-01-30T01:52:58;6.30;;;3.80;;
33836;SDS011;20140;49.356;8.812;2024-01-30T01:55:24;3.07;;;2.60;;
33836;SDS011;20140;49.356;8.812;2024-01-30T01:57:52;4.07;;;2.60;;
33836;SDS011;20140;49.356;8.812;2024-01-30T02:00:18;3.20;;;2.63;;
33836;SDS011;20140;49.356;8.812;2024-01-30T02:02:45;2.80;;;2.38;;
33836;SDS011;20140;49.356;8.812;2024-01-30T02:05:11;3.40;;;3.00;;
33836;SDS011;20140;49.356;8.812;2024-01-30T02:07:40;4.47;;;2.63;;
33836;SDS011;20140;49.356;8.812;2024-01-30T02:10:08;3.30;;;2.90;;
33836;SDS011;20140;49.356;8.812;2024-01-30T02:12:35;3.40;;;2.75;;
33836;SDS011;20140;49.356;8.812;2024-01-30T02:15:00;3.43;;;2.63;;
33836;SDS011;20140;49.356;8.812;2024-01-30T02:17:26;3.92;;;2.45;;
33836;SDS011;20140;49.356;8.812;2024-01-30T02:19:51;4.30;;;2.80;;
33836;SDS011;20140;49.356;8.812;2024-01-30T02:22:17;3.00;;;2.53;;
33836;SDS011;20140;49.356;8.812;2024-01-30T02:24:44;5.40;;;2.97;;
33836;SDS011;20140;49.356;8.812;2024-01-30T02:27:09;4.27;;;3.07;;
33836;SDS011;20140;49.356;8.812;2024-01-30T02:29:35;3.72;;;3.00;;
33836;SDS011;20140;49.356;8.812;2024-01-30T02:32:00;3.15;;;2.55;;
33836;SDS011;20140;49.356;8.812;2024-01-30T02:34:26;4.93;;;2.73;;
33836;SDS011;20140;49.356;8.812;2024-01-30T02:36:51;4.10;;;2.30;;
33836;SDS011;20140;49.356;8.812;2024-01-30T02:39:17;5.20;;;3.20;;
33836;SDS011;20140;49.356;8.812;2024-01-30T02:41:42;4.07;;;3.20;;
33836;SDS011;20140;49.356;8.812;2024-01-30T02:44:08;3.43;;;2.70;;
33836;SDS011;20140;49.356;8.812;2024-01-30T02:46:33;4.27;;;3.03;;
33836;SDS011;20140;49.356;8.812;2024-01-30T02:48:59;3.90;;;2.90;;
33836;SDS011;20140;49.356;8.812;2024-01-30T02:51:24;3.63;;;2.73;;
33836;SDS011;20140;49.356;8.812;2024-01-30T02:53:52;4.32;;;3.05;;
33836;SDS011;20140;49.356;8.812;2024-01-30T02:56:17;4.30;;;3.23;;
33836;SDS011;20140;49.356;8.812;2024-01-30T02:58:43;4.10;;;2.90;;
33836;SDS011;20140;49.356;8.812;2024-01-30T03:01:08;4.53;;;2.73;;
33836;SDS011;20140;49.356;8.812;2024-01-30T03:03:34;3.00;;;2.60;;
33836;SDS011;20140;49.356;8.812;2024-01-30T03:06:00;7.22;;;3.03;;
33836;SDS011;20140;49.356;8.812;2024-01-30T03:08:27;3.50;;;2.40;;
33836;SDS011;20140;49.356;8.812;2024-01-30T03:10:52;4.97;;;2.70;;
33836;SDS011;20140;49.356;8.812;2024-01-30T03:13:18;3.60;;;3.30;;
33836;SDS011;20140;49.356;8.812;2024-01-30T03:15:43;3.17;;;2.45;;
33836;SDS011;20140;49.356;8.812;2024-01-30T03:18:09;3.42;;;2.50;;
33836;SDS011;20140;49.356;8.812;2024-01-30T03:20:34;4.37;;;2.90;;
33836;SDS011;20140;49.356;8.812;2024-01-30T03:23:00;5.23;;;3.57;;
33836;SDS011;20140;49.356;8.812;2024-01-30T03:25:25;3.50;;;2.83;;
33836;SDS011;20140;49.356;8.812;2024-01-30T03:27:51;2.60;;;2.30;;
33836;SDS011;20140;49.356;8.812;2024-01-30T03:30:17;3.17;;;2.63;;
33836;SDS011;20140;49.356;8.812;2024-01-30T03:32:42;3.85;;;2.95;;
33836;SDS011;20140;49.356;8.812;2024-01-30T03:35:09;4.07;;;3.27;;
33836;SDS011;20140;49.356;8.812;2024-01-30T03:37:34;3.75;;;2.75;;
33836;SDS011;20140;49.356;8.812;2024-01-30T03:40:00;3.25;;;2.95;;
33836;SDS011;20140;49.356;8.812;2024-01-30T03:42:26;4.68;;;3.30;;
33836;SDS011;20140;49.356;8.812;2024-01-30T03:44:52;3.53;;;2.85;;
33836;SDS011;20140;49.356;8.812;2024-01-30T03:47:18;3.90;;;2.93;;
33836;SDS011;20140;49.356;8.812;2024-01-30T03:49:44;2.58;;;2.38;;
33836;SDS011;20140;49.356;8.812;2024-01-30T03:52:10;3.83;;;2.60;;
33836;SDS011;20140;49.356;8.812;2024-01-30T03:54:35;4.70;;;2.97;;
33836;SDS011;20140;49.356;8.812;2024-01-30T03:57:01;3.30;;;2.40;;
33836;SDS011;20140;49.356;8.812;2024-01-30T03:59:27;3.25;;;2.30;;
33836;SDS011;20140;49.356;8.812;2024-01-30T04:01:52;4.00;;;2.97;;
33836;SDS011;20140;49.356;8.812;2024-01-30T04:04:18;3.37;;;3.07;;
33836;SDS011;20140;49.356;8.812;2024-01-30T04:06:44;7.05;;;2.95;;
33836;SDS011;20140;49.356;8.812;2024-01-30T04:09:10;2.80;;;2.60;;
33836;SDS011;20140;49.356;8.812;2024-01-30T04:11:36;4.25;;;2.58;;
33836;SDS011;20140;49.356;8.812;2024-01-30T04:14:02;5.07;;;3.00;;
33836;SDS011;20140;49.356;8.812;2024-01-30T04:16:27;3.90;;;2.83;;
33836;SDS011;20140;49.356;8.812;2024-01-30T04:18:53;5.32;;;3.28;;
33836;SDS011;20140;49.356;8.812;2024-01-30T04:21:20;5.22;;;2.08;;
33836;SDS011;20140;49.356;8.812;2024-01-30T04:23:48;2.85;;;2.50;;
33836;SDS011;20140;49.356;8.812;2024-01-30T04:26:15;4.75;;;2.22;;
33836;SDS011;20140;49.356;8.812;2024-01-30T04:28:41;3.07;;;2.70;;
33836;SDS011;20140;49.356;8.812;2024-01-30T04:31:07;3.15;;;2.92;;
33836;SDS011;20140;49.356;8.812;2024-01-30T04:33:32;3.22;;;2.67;;
33836;SDS011;20140;49.356;8.812;2024-01-30T04:35:58;4.17;;;3.13;;
33836;SDS011;20140;49.356;8.812;2024-01-30T04:38:23;3.93;;;3.30;;
33836;SDS011;20140;49.356;8.812;2024-01-30T04:40:49;4.10;;;2.70;;
33836;SDS011;20140;49.356;8.812;2024-01-30T04:43:14;4.00;;;2.73;;
33836;SDS011;20140;49.356;8.812;2024-01-30T04:45:40;4.70;;;2.40;;
33836;SDS011;20140;49.356;8.812;2024-01-30T04:48:06;3.77;;;2.80;;
33836;SDS011;20140;49.356;8.812;2024-01-30T04:50:32;3.45;;;2.75;;
33836;SDS011;20140;49.356;8.812;2024-01-30T04:53:00;2.53;;;2.30;;
33836;SDS011;20140;49.356;8.812;2024-01-30T04:55:25;4.57;;;3.07;;
33836;SDS011;20140;49.356;8.812;2024-01-30T04:57:51;3.30;;;2.63;;
33836;SDS011;20140;49.356;8.812;2024-01-30T05:00:16;2.65;;;2.17;;
33836;SDS011;20140;49.356;8.812;2024-01-30T05:02:42;3.37;;;2.73;;
33836;SDS011;20140;49.356;8.812;2024-01-30T05:05:08;3.73;;;3.10;;
33836;SDS011;20140;49.356;8.812;2024-01-30T05:07:33;3.20;;;2.70;;
33836;SDS011;20140;49.356;8.812;2024-01-30T05:09:59;5.10;;;3.58;;
33836;SDS011;20140;49.356;8.812;2024-01-30T05:12:25;2.75;;;2.47;;
33836;SDS011;20140;49.356;8.812;2024-01-30T05:14:50;2.60;;;2.30;;
33836;SDS011;20140;49.356;8.812;2024-01-30T05:17:16;3.88;;;3.13;;
33836;SDS011;20140;49.356;8.812;2024-01-30T05:19:42;4.83;;;3.30;;
33836;SDS011;20140;49.356;8.812;2024-01-30T05:22:08;3.67;;;2.38;;
33836;SDS011;20140;49.356;8.812;2024-01-30T05:24:34;2.90;;;2.60;;
33836;SDS011;20140;49.356;8.812;2024-01-30T05:27:00;3.35;;;2.40;;
33836;SDS011;20140;49.356;8.812;2024-01-30T05:29:26;2.87;;;2.60;;
33836;SDS011;20140;49.356;8.812;2024-01-30T05:31:52;3.60;;;2.85;;
33836;SDS011;20140;49.356;8.812;2024-01-30T05:34:20;8.05;;;3.90;;
33836;SDS011;20140;49.356;8.812;2024-01-30T05:36:45;4.50;;;3.35;;
33836;SDS011;20140;49.356;8.812;2024-01-30T05:39:11;4.38;;;2.25;;
33836;SDS011;20140;49.356;8.812;2024-01-30T05:41:36;3.40;;;2.57;;
33836;SDS011;20140;49.356;8.812;2024-01-30T05:44:01;3.43;;;2.90;;
33836;SDS011;20140;49.356;8.812;2024-01-30T05:46:27;4.13;;;2.33;;
33836;SDS011;20140;49.356;8.812;2024-01-30T05:48:53;2.63;;;2.40;;
33836;SDS011;20140;49.356;8.812;2024-01-30T05:51:18;3.70;;;2.90;;
33836;SDS011;20140;49.356;8.812;2024-01-30T05:53:44;2.60;;;2.40;;
33836;SDS011;20140;49.356;8.812;2024-01-30T05:56:09;3.47;;;2.80;;
33836;SDS011;20140;49.356;8.812;2024-01-30T05:58:35;3.27;;;2.53;;
33836;SDS011;20140;49.356;8.812;2024-01-30T06:01:02;5.65;;;2.85;;
33836;SDS011;20140;49.356;8.812;2024-01-30T06:03:28;7.33;;;3.03;;
33836;SDS011;20140;49.356;8.812;2024-01-30T06:05:53;3.47;;;3.03;;
33836;SDS011;20140;49.356;8.812;2024-01-30T06:08:19;4.77;;;2.87;;
33836;SDS011;20140;49.356;8.812;2024-01-30T06:10:44;3.63;;;3.17;;
33836;SDS011;20140;49.356;8.812;2024-01-30T06:13:10;3.37;;;2.33;;
33836;SDS011;20140;49.356;8.812;2024-01-30T06:15:37;3.70;;;2.87;;
33836;SDS011;20140;49.356;8.812;2024-01-30T06:18:03;3.80;;;2.90;;
33836;SDS011;20140;49.356;8.812;2024-01-30T06:20:29;4.28;;;3.78;;
33836;SDS011;20140;49.356;8.812;2024-01-30T06:22:57;3.97;;;2.33;;
33836;SDS011;20140;49.356;8.812;2024-01-30T06:25:23;3.35;;;2.63;;
33836;SDS011;20140;49.356;8.812;2024-01-30T06:27:48;3.20;;;2.35;;
33836;SDS011;20140;49.356;8.812;2024-01-30T06:30:14;3.28;;;2.10;;
33836;SDS011;20140;49.356;8.812;2024-01-30T06:32:40;3.50;;;2.70;;
33836;SDS011;20140;49.356;8.812;2024-01-30T06:35:06;4.30;;;2.83;;
33836;SDS011;20140;49.356;8.812;2024-01-30T06:37:31;2.92;;;2.70;;
33836;SDS011;20140;49.356;8.812;2024-01-30T06:39:57;3.55;;;2.63;;
33836;SDS011;20140;49.356;8.812;2024-01-30T06:42:22;3.55;;;2.70;;
33836;SDS011;20140;49.356;8.812;2024-01-30T06:44:48;4.45;;;3.13;;
33836;SDS011;20140;49.356;8.812;2024-01-30T06:47:13;3.50;;;2.20;;
33836;SDS011;20140;49.356;8.812;2024-01-30T06:49:39;2.90;;;2.33;;
33836;SDS011;20140;49.356;8.812;2024-01-30T06:52:07;2.92;;;2.53;;
33836;SDS011;20140;49.356;8.812;2024-01-30T06:54:32;4.60;;;2.90;;
33836;SDS011;20140;49.356;8.812;2024-01-30T06:56:58;3.40;;;2.75;;
33836;SDS011;20140;49.356;8.812;2024-01-30T06:59:24;2.80;;;2.40;;
33836;SDS011;20140;49.356;8.812;2024-01-30T07:01:49;5.13;;;4.60;;
33836;SDS011;20140;49.356;8.812;2024-01-30T07:04:15;4.07;;;3.67;;
33836;SDS011;20140;49.356;8.812;2024-01-30T07:06:41;4.80;;;4.05;;
33836;SDS011;20140;49.356;8.812;2024-01-30T07:09:07;4.30;;;3.73;;
33836;SDS011;20140;49.356;8.812;2024-01-30T07:11:33;3.75;;;2.80;;
33836;SDS011;20140;49.356;8.812;2024-01-30T07:13:59;3.67;;;3.20;;
33836;SDS011;20140;49.356;8.812;2024-01-30T07:16:24;4.77;;;3.03;;
33836;SDS011;20140;49.356;8.812;2024-01-30T07:18:50;4.10;;;3.23;;
33836;SDS011;20140;49.356;8.812;2024-01-30T07:21:16;3.73;;;3.07;;
33836;SDS011;20140;49.356;8.812;2024-01-30T07:23:42;5.10;;;4.03;;
33836;SDS011;20140;49.356;8.812;2024-01-30T07:26:08;4.55;;;3.88;;
33836;SDS011;20140;49.356;8.812;2024-01-30T07:28:34;4.90;;;3.35;;
33836;SDS011;20140;49.356;8.812;2024-01-30T07:31:00;4.65;;;3.28;;
33836;SDS011;20140;49.356;8.812;2024-01-30T07:33:28;3.75;;;3.45;;
33836;SDS011;20140;49.356;8.812;2024-01-30T07:35:53;4.63;;;3.27;;
33836;SDS011;20140;49.356;8.812;2024-01-30T07:38:19;3.50;;;3.17;;
33836;SDS011;20140;49.356;8.812;2024-01-30T07:40:45;4.18;;;3.47;;
33836;SDS011;20140;49.356;8.812;2024-01-30T07:43:11;3.37;;;3.07;;
33836;SDS011;20140;49.356;8.812;2024-01-30T07:45:36;3.17;;;2.67;;
33836;SDS011;20140;49.356;8.812;2024-01-30T07:48:03;3.13;;;2.83;;
33836;SDS011;20140;49.356;8.812;2024-01-30T07:50:29;3.53;;;3.00;;
33836;SDS011;20140;49.356;8.812;2024-01-30T07:52:55;3.80;;;2.47;;
33836;SDS011;20140;49.356;8.812;2024-01-30T07:55:21;4.80;;;3.00;;
33836;SDS011;20140;49.356;8.812;2024-01-30T07:57:52;4.68;;;3.38;;
33836;SDS011;20140;49.356;8.812;2024-01-30T08:00:21;4.05;;;3.65;;
33836;SDS011;20140;49.356;8.812;2024-01-30T08:02:47;4.88;;;2.75;;
33836;SDS011;20140;49.356;8.812;2024-01-30T08:05:13;3.13;;;2.42;;
33836;SDS011;20140;49.356;8.812;2024-01-30T08:07:40;3.22;;;2.72;;
33836;SDS011;20140;49.356;8.812;2024-01-30T08:10:10;4.03;;;3.60;;
33836;SDS011;20140;49.356;8.812;2024-01-30T08:12:36;3.88;;;2.60;;
33836;SDS011;20140;49.356;8.812;2024-01-30T08:15:02;3.97;;;2.60;;
33836;SDS011;20140;49.356;8.812;2024-01-30T08:17:28;4.32;;;2.70;;
33836;SDS011;20140;49.356;8.812;2024-01-30T08:19:53;3.40;;;2.70;;
33836;SDS011;20140;49.356;8.812;2024-01-30T08:22:19;3.27;;;2.47;;
33836;SDS011;20140;49.356;8.812;2024-01-30T08:24:44;3.57;;;2.27;;
33836;SDS011;20140;49.356;8.812;2024-01-30T08:27:10;2.93;;;2.57;;
33836;SDS011;20140;49.356;8.812;2024-01-30T08:29:38;3.60;;;2.78;;
33836;SDS011;20140;49.356;8.812;2024-01-30T08:32:04;4.55;;;3.30;;
33836;SDS011;20140;49.356;8.812;2024-01-30T08:34:33;7.90;;;5.05;;
33836;SDS011;20140;49.356;8.812;2024-01-30T08:36:59;6.37;;;4.33;;
33836;SDS011;20140;49.356;8.812;2024-01-30T08:39:24;13.37;;;9.33;;
33836;SDS011;20140;49.356;8.812;2024-01-30T08:41:50;11.93;;;8.13;;
33836;SDS011;20140;49.356;8.812;2024-01-30T08:44:17;12.77;;;8.50;;
33836;SDS011;20140;49.356;8.812;2024-01-30T08:46:44;8.93;;;7.03;;
33836;SDS011;20140;49.356;8.812;2024-01-30T08:49:10;10.27;;;7.20;;
33836;SDS011;20140;49.356;8.812;2024-01-30T08:51:38;12.70;;;10.20;;
33836;SDS011;20140;49.356;8.812;2024-01-30T08:54:04;9.47;;;7.73;;
33836;SDS011;20140;49.356;8.812;2024-01-30T08:56:29;12.07;;;8.30;;
33836;SDS011;20140;49.356;8.812;2024-01-30T08:58:55;10.43;;;8.33;;
33836;SDS011;20140;49.356;8.812;2024-01-30T09:01:20;11.93;;;8.97;;
33836;SDS011;20140;49.356;8.812;2024-01-30T09:03:46;9.47;;;7.67;;
33836;SDS011;20140;49.356;8.812;2024-01-30T09:06:11;7.07;;;6.30;;
33836;SDS011;20140;49.356;8.812;2024-01-30T09:08:37;7.70;;;6.20;;
33836;SDS011;20140;49.356;8.812;2024-01-30T09:11:13;7.25;;;5.70;;
33836;SDS011;20140;49.356;8.812;2024-01-30T09:13:39;10.07;;;6.87;;
33836;SDS011;20140;49.356;8.812;2024-01-30T09:16:05;8.02;;;6.68;;
33836;SDS011;20140;49.356;8.812;2024-01-30T09:18:31;12.00;;;7.73;;
33836;SDS011;20140;49.356;8.812;2024-01-30T09:20:57;9.87;;;8.50;;
33836;SDS011;20140;49.356;8.812;2024-01-30T09:23:22;9.87;;;8.20;;
33836;SDS011;20140;49.356;8.812;2024-01-30T09:25:48;8.47;;;7.53;;
33836;SDS011;20140;49.356;8.812;2024-01-30T09:28:18;6.57;;;5.87;;
33836;SDS011;20140;49.356;8.812;2024-01-30T09:30:44;6.60;;;5.00;;
33836;SDS011;20140;49.356;8.812;2024-01-30T09:33:09;6.77;;;5.67;;
33836;SDS011;20140;49.356;8.812;2024-01-30T09:35:38;6.67;;;6.00;;
33836;SDS011;20140;49.356;8.812;2024-01-30T09:38:03;6.93;;;5.00;;
33836;SDS011;20140;49.356;8.812;2024-01-30T09:40:29;5.50;;;4.23;;
33836;SDS011;20140;49.356;8.812;2024-01-30T09:42:55;6.10;;;4.80;;
33836;SDS011;20140;49.356;8.812;2024-01-30T09:45:23;6.90;;;5.43;;
33836;SDS011;20140;49.356;8.812;2024-01-30T09:47:50;6.82;;;5.88;;
33836;SDS011;20140;49.356;8.812;2024-01-30T09:50:16;5.65;;;5.00;;
33836;SDS011;20140;49.356;8.812;2024-01-30T09:52:45;8.43;;;5.78;;
33836;SDS011;20140;49.356;8.812;2024-01-30T09:55:11;7.43;;;5.80;;
33836;SDS011;20140;49.356;8.812;2024-01-30T09:57:37;7.30;;;5.65;;
33836;SDS011;20140;49.356;8.812;2024-01-30T10:00:03;6.53;;;5.82;;
33836;SDS011;20140;49.356;8.812;2024-01-30T10:02:30;8.40;;;5.50;;
33836;SDS011;20140;49.356;8.812;2024-01-30T10:04:57;8.10;;;6.35;;
33836;SDS011;20140;49.356;8.812;2024-01-30T10:07:22;9.80;;;7.68;;
33836;SDS011;20140;49.356;8.812;2024-01-30T10:09:48;7.05;;;6.35;;
33836;SDS011;20140;49.356;8.812;2024-01-30T10:12:14;7.50;;;6.45;;
33836;SDS011;20140;49.356;8.812;2024-01-30T10:14:40;6.03;;;5.43;;
33836;SDS011;20140;49.356;8.812;2024-01-30T10:17:10;5.83;;;5.27;;
33836;SDS011;20140;49.356;8.812;2024-01-30T10:19:37;8.85;;;5.65;;
33836;SDS011;20140;49.356;8.812;2024-01-30T10:22:03;6.10;;;4.60;;
33836;SDS011;20140;49.356;8.812;2024-01-30T10:24:29;6.47;;;5.32;;
33836;SDS011;20140;49.356;8.812;2024-01-30T10:26:55;6.47;;;4.82;;
33836;SDS011;20140;49.356;8.812;2024-01-30T10:29:21;7.30;;;5.63;;
33836;SDS011;20140;49.356;8.812;2024-01-30T10:31:59;6.07;;;4.70;;
33836;SDS011;20140;49.356;8.812;2024-01-30T10:34:26;7.05;;;5.28;;
33836;SDS011;20140;49.356;8.812;2024-01-30T10:36:54;6.05;;;5.38;;
33836;SDS011;20140;49.356;8.812;2024-01-30T10:39:32;8.60;;;6.60;;
33836;SDS011;20140;49.356;8.812;2024-01-30T10:42:03;8.52;;;6.43;;
33836;SDS011;20140;49.356;8.812;2024-01-30T10:44:30;8.60;;;6.80;;
33836;SDS011;20140;49.356;8.812;2024-01-30T10:47:25;8.60;;;7.57;;
33836;SDS011;20140;49.356;8.812;2024-01-30T10:49:52;9.63;;;7.03;;
33836;SDS011;20140;49.356;8.812;2024-01-30T10:52:19;8.00;;;6.40;;
33836;SDS011;20140;49.356;8.812;2024-01-30T10:54:45;7.33;;;6.53;;
33836;SDS011;20140;49.356;8.812;2024-01-30T10:57:12;9.98;;;7.55;;
33836;SDS011;20140;49.356;8.812;2024-01-30T10:59:38;8.80;;;6.65;;
33836;SDS011;20140;49.356;8.812;2024-01-30T11:02:04;8.57;;;6.70;;
33836;SDS011;20140;49.356;8.812;2024-01-30T11:04:37;7.97;;;6.17;;
33836;SDS011;20140;49.356;8.812;2024-01-30T11:07:13;6.57;;;5.45;;
33836;SDS011;20140;49.356;8.812;2024-01-30T11:09:49;7.90;;;5.90;;
33836;SDS011;20140;49.356;8.812;2024-01-30T11:12:21;6.82;;;5.80;;
33836;SDS011;20140;49.356;8.812;2024-01-30T11:14:48;8.63;;;6.45;;
33836;SDS011;20140;49.356;8.812;2024-01-30T11:17:15;8.35;;;6.53;;
33836;SDS011;20140;49.356;8.812;2024-01-30T11:19:41;8.47;;;6.43;;
33836;SDS011;20140;49.356;8.812;2024-01-30T11:22:07;8.00;;;6.00;;
33836;SDS011;20140;49.356;8.812;2024-01-30T11:24:39;8.63;;;6.00;;
33836;SDS011;20140;49.356;8.812;2024-01-30T11:27:08;7.13;;;6.35;;
33836;SDS011;20140;49.356;8.812;2024-01-30T11:29:35;8.07;;;6.53;;
33836;SDS011;20140;49.356;8.812;2024-01-30T11:32:01;9.20;;;7.05;;
33836;SDS011;20140;49.356;8.812;2024-01-30T11:34:27;10.30;;;7.53;;
33836;SDS011;20140;49.356;8.812;2024-01-30T11:36:55;8.43;;;6.97;;
33836;SDS011;20140;49.356;8.812;2024-01-30T11:39:25;7.25;;;6.28;;
33836;SDS011;20140;49.356;8.812;2024-01-30T11:41:51;7.83;;;5.87;;
33836;SDS011;20140;49.356;8.812;2024-01-30T11:44:18;11.10;;;7.50;;
33836;SDS011;20140;49.356;8.812;2024-01-30T11:46:46;8.48;;;7.35;;
33836;SDS011;20140;49.356;8.812;2024-01-30T11:49:18;9.60;;;7.70;;
33836;SDS011;20140;49.356;8.812;2024-01-30T11:51:47;11.03;;;7.60;;
33836;SDS011;20140;49.356;8.812;2024-01-30T11:54:16;10.90;;;8.30;;
33836;SDS011;20140;49.356;8.812;2024-01-30T11:56:43;10.65;;;8.07;;
33836;SDS011;20140;49.356;8.812;2024-01-30T11:59:08;10.38;;;8.45;;
33836;SDS011;20140;49.356;8.812;2024-01-30T12:01:34;8.63;;;7.50;;
33836;SDS011;20140;49.356;8.812;2024-01-30T12:04:00;10.75;;;8.10;;
33836;SDS011;20140;49.356;8.812;2024-01-30T12:06:26;12.85;;;9.75;;
33836;SDS011;20140;49.356;8.812;2024-01-30T12:08:58;12.03;;;10.03;;
33836;SDS011;20140;49.356;8.812;2024-01-30T12:11:25;9.82;;;8.32;;
33836;SDS011;20140;49.356;8.812;2024-01-30T12:13:55;10.15;;;7.25;;
33836;SDS011;20140;49.356;8.812;2024-01-30T12:16:21;11.18;;;7.38;;
33836;SDS011;20140;49.356;8.812;2024-01-30T12:18:46;9.82;;;7.53;;
33836;SDS011;20140;49.356;8.812;2024-01-30T12:21:12;12.10;;;7.57;;
33836;SDS011;20140;49.356;8.812;2024-01-30T12:23:41;8.52;;;7.22;;
33836;SDS011;20140;49.356;8.812;2024-01-30T12:26:07;10.03;;;7.83;;
33836;SDS011;20140;49.356;8.812;2024-01-30T12:28:33;8.73;;;7.30;;
33836;SDS011;20140;49.356;8.812;2024-01-30T12:31:02;9.57;;;6.72;;
33836;SDS011;20140;49.356;8.812;2024-01-30T12:33:28;7.68;;;5.68;;
33836;SDS011;20140;49.356;8.812;2024-01-30T12:35:54;9.85;;;7.00;;
33836;SDS011;20140;49.356;8.812;2024-01-30T12:38:21;7.70;;;6.47;;
33836;SDS011;20140;49.356;8.812;2024-01-30T12:40:46;8.53;;;6.23;;
33836;SDS011;20140;49.356;8.812;2024-01-30T12:43:13;5.87;;;5.17;;
33836;SDS011;20140;49.356;8.812;2024-01-30T12:45:39;7.50;;;6.40;;
33836;SDS011;20140;49.356;8.812;2024-01-30T12:48:06;7.95;;;6.10;;
33836;SDS011;20140;49.356;8.812;2024-01-30T12:50:35;8.02;;;6.00;;
33836;SDS011;20140;49.356;8.812;2024-01-30T12:53:00;8.20;;;6.35;;
33836;SDS011;20140;49.356;8.812;2024-01-30T12:55:26;7.83;;;6.07;;
33836;SDS011;20140;49.356;8.812;2024-01-30T12:57:55;8.73;;;6.88;;
33836;SDS011;20140;49.356;8.812;2024-01-30T13:00:21;6.75;;;5.80;;
33836;SDS011;20140;49.356;8.812;2024-01-30T13:02:47;10.97;;;7.33;;
33836;SDS011;20140;49.356;8.812;2024-01-30T13:05:13;9.25;;;7.10;;
33836;SDS011;20140;49.356;8.812;2024-01-30T13:07:39;8.73;;;7.40;;
33836;SDS011;20140;49.356;8.812;2024-01-30T13:10:04;9.17;;;7.60;;
33836;SDS011;20140;49.356;8.812;2024-01-30T13:12:31;8.90;;;7.75;;
33836;SDS011;20140;49.356;8.812;2024-01-30T13:14:58;10.37;;;8.33;;
33836;SDS011;20140;49.356;8.812;2024-01-30T13:17:25;8.63;;;7.60;;
33836;SDS011;20140;49.356;8.812;2024-01-30T13:19:51;10.07;;;7.50;;
33836;SDS011;20140;49.356;8.812;2024-01-30T13:22:16;9.57;;;6.65;;
33836;SDS011;20140;49.356;8.812;2024-01-30T13:24:42;9.38;;;6.78;;
33836;SDS011;20140;49.356;8.812;2024-01-30T13:27:08;9.47;;;7.13;;
33836;SDS011;20140;49.356;8.812;2024-01-30T13:29:33;8.57;;;7.50;;
33836;SDS011;20140;49.356;8.812;2024-01-30T13:31:59;10.53;;;7.30;;
33836;SDS011;20140;49.356;8.812;2024-01-30T13:34:24;9.60;;;7.40;;
33836;SDS011;20140;49.356;8.812;2024-01-30T13:36:50;7.27;;;6.50;;
33836;SDS011;20140;49.356;8.812;2024-01-30T13:39:15;8.93;;;7.23;;
33836;SDS011;20140;49.356;8.812;2024-01-30T13:41:41;7.13;;;6.27;;
33836;SDS011;20140;49.356;8.812;2024-01-30T13:44:07;10.02;;;6.03;;
33836;SDS011;20140;49.356;8.812;2024-01-30T13:46:33;6.87;;;6.00;;
33836;SDS011;20140;49.356;8.812;2024-01-30T13:48:59;6.70;;;5.55;;
33836;SDS011;20140;49.356;8.812;2024-01-30T13:51:24;6.07;;;5.47;;
33836;SDS011;20140;49.356;8.812;2024-01-30T13:53:50;6.10;;;5.40;;
33836;SDS011;20140;49.356;8.812;2024-01-30T13:56:16;8.60;;;6.13;;
33836;SDS011;20140;49.356;8.812;2024-01-30T13:58:41;6.87;;;5.70;;
33836;SDS011;20140;49.356;8.812;2024-01-30T14:01:07;6.80;;;5.63;;
33836;SDS011;20140;49.356;8.812;2024-01-30T14:03:34;7.65;;;6.13;;
33836;SDS011;20140;49.356;8.812;2024-01-30T14:06:00;6.83;;;5.80;;
33836;SDS011;20140;49.356;8.812;2024-01-30T14:08:26;6.57;;;4.53;;
33836;SDS011;20140;49.356;8.812;2024-01-30T14:10:53;6.97;;;5.07;;
33836;SDS011;20140;49.356;8.812;2024-01-30T14:13:20;6.72;;;5.32;;
33836;SDS011;20140;49.356;8.812;2024-01-30T14:15:46;6.80;;;5.03;;
33836;SDS011;20140;49.356;8.812;2024-01-30T14:18:14;7.43;;;4.95;;
33836;SDS011;20140;49.356;8.812;2024-01-30T14:20:40;6.55;;;5.38;;
33836;SDS011;20140;49.356;8.812;2024-01-30T14:23:08;7.17;;;5.63;;
33836;SDS011;20140;49.356;8.812;2024-01-30T14:25:33;6.55;;;5.38;;
33836;SDS011;20140;49.356;8.812;2024-01-30T14:27:59;7.47;;;5.47;;
33836;SDS011;20140;49.356;8.812;2024-01-30T14:30:24;7.03;;;4.70;;
33836;SDS011;20140;49.356;8.812;2024-01-30T14:32:50;8.90;;;5.30;;
33836;SDS011;20140;49.356;8.812;2024-01-30T14:35:15;6.83;;;4.97;;
33836;SDS011;20140;49.356;8.812;2024-01-30T14:37:41;6.43;;;5.10;;
33836;SDS011;20140;49.356;8.812;2024-01-30T14:40:07;6.20;;;5.00;;